createdAt,value
2018-12-19T00:00:06.959Z,588.3
2018-12-19T00:01:09.103Z,589.1
2018-12-19T00:02:11.537Z,589.3
2018-12-19T00:03:13.956Z,589.5
2018-12-19T00:04:16.381Z,589.3
2018-12-19T00:05:18.265Z,589.3
2018-12-19T00:06:20.427Z,589.1
2018-12-19T00:07:22.857Z,588.7
2018-12-19T00:08:25.007Z,588.4
2018-12-19T00:09:27.473Z,588.6
2018-12-19T00:10:29.621Z,588.9
2018-12-19T00:11:32.060Z,588.7
2018-12-19T00:12:34.227Z,588.4
2018-12-19T00:13:36.641Z,588.6
2018-12-19T00:14:38.790Z,589
2018-12-19T00:15:40.956Z,589.6
2018-12-19T00:16:43.101Z,589.5
2018-12-19T00:17:45.253Z,589.8
2018-12-19T00:18:47.676Z,589.8
2018-12-19T00:19:49.572Z,590.3
2018-12-19T00:20:51.995Z,590.5
2018-12-19T00:21:54.141Z,590.4
2018-12-19T00:22:56.581Z,590.7
2018-12-19T00:23:58.430Z,590.5
2018-12-19T00:25:00.611Z,590.9
2018-12-19T00:26:03.032Z,590.4
2018-12-19T00:27:05.185Z,590.6
2018-12-19T00:28:07.344Z,590.8
2018-12-19T00:29:09.768Z,591.5
2018-12-19T00:30:12.180Z,591.9
2018-12-19T00:31:14.609Z,591.8
2018-12-19T00:32:16.479Z,592.4
2018-12-19T00:33:18.898Z,592.3
2018-12-19T00:34:21.066Z,592.6
2018-12-19T00:35:23.490Z,592.8
2018-12-19T00:36:25.654Z,592.5
2018-12-19T00:37:27.791Z,592.3
2018-12-19T00:38:30.227Z,592.5
2018-12-19T00:39:32.655Z,592.7
2018-12-19T00:40:35.102Z,592.4
2018-12-19T00:41:37.520Z,592.3
2018-12-19T00:42:39.946Z,592.2
2018-12-19T00:43:42.106Z,592.3
2018-12-19T00:44:44.530Z,591.9
2018-12-19T00:45:46.958Z,591.5
2018-12-19T00:46:49.398Z,591.7
2018-12-19T00:47:51.829Z,591.5
2018-12-19T00:48:53.983Z,591.6
2018-12-19T00:49:56.134Z,591.8
2018-12-19T00:50:58.290Z,591.7
2018-12-19T00:52:00.457Z,592
2018-12-19T00:53:02.872Z,591.9
2018-12-19T00:54:05.291Z,591.5
2018-12-19T00:55:07.441Z,591.9
2018-12-19T00:56:09.577Z,591.8
2018-12-19T00:57:12.009Z,592.2
2018-12-19T00:58:14.161Z,592.1
2018-12-19T00:59:16.292Z,592.3
2018-12-19T01:00:18.707Z,591.9
2018-12-19T01:01:21.134Z,592
2018-12-19T01:02:23.567Z,592.3
2018-12-19T01:03:25.992Z,592.2
2018-12-19T01:04:28.117Z,592.3
2018-12-19T01:05:29.989Z,591.6
2018-12-19T01:06:31.863Z,591.4
2018-12-19T01:07:34.001Z,591.8
2018-12-19T01:08:36.437Z,591.6
2018-12-19T01:09:38.589Z,592.5
2018-12-19T01:10:41.010Z,592.5
2018-12-19T01:11:43.447Z,592.5
2018-12-19T01:12:45.607Z,592.6
2018-12-19T01:13:48.032Z,592.4
2018-12-19T01:14:50.452Z,592.6
2018-12-19T01:15:52.304Z,593
2018-12-19T01:16:54.729Z,593
2018-12-19T01:17:57.151Z,592.5
2018-12-19T01:18:59.280Z,592.8
2018-12-19T01:20:01.435Z,592.5
2018-12-19T01:21:03.588Z,592.4
2018-12-19T01:22:06.019Z,592.5
2018-12-19T01:23:08.167Z,592.7
2018-12-19T01:24:10.322Z,592.8
2018-12-19T01:25:12.751Z,592.3
2018-12-19T01:26:15.171Z,592.3
2018-12-19T01:27:17.339Z,592.5
2018-12-19T01:28:19.497Z,592.8
2018-12-19T01:29:21.645Z,592.8
2018-12-19T01:30:24.078Z,593.2
2018-12-19T01:31:26.237Z,592.9
2018-12-19T01:32:28.661Z,593.3
2018-12-19T01:33:30.791Z,593.4
2018-12-19T01:34:32.942Z,593.1
2018-12-19T01:35:35.381Z,593
2018-12-19T01:36:37.807Z,592.9
2018-12-19T01:37:40.248Z,592.9
2018-12-19T01:38:42.672Z,592.2
2018-12-19T01:39:45.101Z,591.4
2018-12-19T01:40:46.973Z,591.8
2018-12-19T01:41:49.399Z,591.5
2018-12-19T01:42:51.833Z,592
2018-12-19T01:43:54.002Z,592.3
2018-12-19T01:44:56.137Z,592.3
2018-12-19T01:45:58.561Z,592.3
2018-12-19T01:47:00.706Z,592.2
2018-12-19T01:48:03.130Z,592
2018-12-19T01:49:05.559Z,592.2
2018-12-19T01:50:07.979Z,592.1
2018-12-19T01:51:10.121Z,592.1
2018-12-19T01:52:12.256Z,592.4
2018-12-19T01:53:14.402Z,592.5
2018-12-19T01:54:16.830Z,592.7
2018-12-19T01:55:18.716Z,593.1
2018-12-19T01:56:21.137Z,592.6
2018-12-19T01:57:23.269Z,592.9
2018-12-19T01:58:24.579Z,592.9
2018-12-19T01:59:26.731Z,592.2
2018-12-19T02:00:28.892Z,592.1
2018-12-19T02:01:31.317Z,592
2018-12-19T02:02:33.469Z,591.5
2018-12-19T02:03:35.887Z,591.9
2018-12-19T02:04:38.028Z,592.1
2018-12-19T02:05:39.902Z,591.7
2018-12-19T02:06:42.317Z,592
2018-12-19T02:07:44.476Z,592.2
2018-12-19T02:08:46.331Z,591.8
2018-12-19T02:09:48.745Z,591.9
2018-12-19T02:10:51.177Z,592.1
2018-12-19T02:11:53.591Z,591.8
2018-12-19T02:12:55.741Z,591.7
2018-12-19T02:13:57.891Z,591.8
2018-12-19T02:15:00.084Z,591.6
2018-12-19T02:16:02.500Z,591.5
2018-12-19T02:17:04.647Z,591.5
2018-12-19T02:18:07.073Z,591.5
2018-12-19T02:19:09.501Z,591.7
2018-12-19T02:20:11.913Z,592.1
2018-12-19T02:21:14.080Z,591.8
2018-12-19T02:22:16.505Z,592.3
2018-12-19T02:23:18.942Z,592.3
2018-12-19T02:24:21.554Z,592.7
2018-12-19T02:25:23.967Z,592.6
2018-12-19T02:26:26.390Z,592.8
2018-12-19T02:27:28.803Z,592.3
2018-12-19T02:28:31.240Z,591.9
2018-12-19T02:29:33.399Z,590.9
2018-12-19T02:30:35.824Z,590
2018-12-19T02:31:38.258Z,589.9
2018-12-19T02:32:40.414Z,589.8
2018-12-19T02:33:42.561Z,589.6
2018-12-19T02:34:44.982Z,589.2
2018-12-19T02:35:47.412Z,589
2018-12-19T02:36:49.579Z,588.6
2018-12-19T02:37:51.739Z,588.6
2018-12-19T02:38:54.159Z,588.7
2018-12-19T02:39:56.035Z,588.7
2018-12-19T02:40:58.188Z,589
2018-12-19T02:42:00.619Z,589.1
2018-12-19T02:43:02.541Z,589.4
2018-12-19T02:44:04.971Z,589
2018-12-19T02:45:07.412Z,588.8
2018-12-19T02:46:09.831Z,588.4
2018-12-19T02:47:12.251Z,588.2
2018-12-19T02:48:14.675Z,588.2
2018-12-19T02:49:16.827Z,588.1
2018-12-19T02:50:19.269Z,588.3
2018-12-19T02:51:20.870Z,588.9
2018-12-19T02:52:23.026Z,589
2018-12-19T02:53:24.879Z,588.6
2018-12-19T02:54:27.036Z,588.7
2018-12-19T02:55:29.458Z,588.8
2018-12-19T02:56:31.890Z,588.9
2018-12-19T02:57:34.325Z,588.5
2018-12-19T02:58:36.485Z,588
2018-12-19T02:59:38.640Z,587.9
2018-12-19T03:00:41.070Z,588.4
2018-12-19T03:01:43.232Z,588.9
2018-12-19T03:02:45.657Z,588.5
2018-12-19T03:03:47.823Z,588.2
2018-12-19T03:04:50.240Z,587.9
2018-12-19T03:05:52.665Z,588
2018-12-19T03:06:55.090Z,588.3
2018-12-19T03:07:57.515Z,587.9
2018-12-19T03:08:59.693Z,587.9
2018-12-19T03:10:02.210Z,587.2
2018-12-19T03:11:04.666Z,586.6
2018-12-19T03:12:06.534Z,586.1
2018-12-19T03:13:08.961Z,585.9
2018-12-19T03:14:11.388Z,586.6
2018-12-19T03:15:13.815Z,587
2018-12-19T03:16:16.254Z,587.2
2018-12-19T03:17:18.415Z,587.6
2018-12-19T03:18:20.838Z,588.1
2018-12-19T03:19:23.254Z,588
2018-12-19T03:20:25.408Z,588.4
2018-12-19T03:21:27.842Z,588.5
2018-12-19T03:22:29.995Z,589
2018-12-19T03:23:32.422Z,589.4
2018-12-19T03:24:34.575Z,589.6
2018-12-19T03:25:37.000Z,589.7
2018-12-19T03:26:39.418Z,589.7
2018-12-19T03:27:41.561Z,589.3
2018-12-19T03:28:43.990Z,589
2018-12-19T03:29:46.414Z,589.2
2018-12-19T03:30:48.837Z,588.8
2018-12-19T03:31:51.262Z,589.6
2018-12-19T03:32:53.621Z,589.3
2018-12-19T03:33:56.050Z,590
2018-12-19T03:34:58.473Z,589.8
2018-12-19T03:36:02.297Z,589.4
2018-12-19T03:37:04.440Z,589.6
2018-12-19T03:38:06.873Z,589.4
2018-12-19T03:39:08.772Z,589.3
2018-12-19T03:40:10.916Z,589.8
2018-12-19T03:41:12.792Z,589.6
2018-12-19T03:42:15.228Z,589.6
2018-12-19T03:43:17.106Z,589.5
2018-12-19T03:44:19.532Z,589.3
2018-12-19T03:45:21.959Z,589.7
2018-12-19T03:46:24.111Z,589.5
2018-12-19T03:47:26.535Z,589.7
2018-12-19T03:48:28.420Z,589.9
2018-12-19T03:49:30.319Z,589.8
2018-12-19T03:50:32.737Z,589.8
2018-12-19T03:51:34.593Z,589.8
2018-12-19T03:52:36.752Z,590
2018-12-19T03:53:38.895Z,590.2
2018-12-19T03:54:41.321Z,590
2018-12-19T03:55:43.473Z,589.8
2018-12-19T03:56:45.890Z,590.3
2018-12-19T03:57:48.315Z,590.3
2018-12-19T03:58:50.738Z,590
2018-12-19T03:59:52.878Z,589.9
2018-12-19T04:00:55.301Z,589.9
2018-12-19T04:01:57.721Z,590.3
2018-12-19T04:02:59.870Z,590.4
2018-12-19T04:04:02.012Z,589.9
2018-12-19T04:05:04.432Z,589.4
2018-12-19T04:06:06.845Z,589.5
2018-12-19T04:07:09.272Z,589.6
2018-12-19T04:08:11.705Z,589.3
2018-12-19T04:09:13.847Z,589.3
2018-12-19T04:10:16.273Z,588.9
2018-12-19T04:11:18.424Z,588.9
2018-12-19T04:12:20.848Z,589.3
2018-12-19T04:13:22.998Z,589.2
2018-12-19T04:14:25.411Z,588.8
2018-12-19T04:15:27.570Z,588.2
2018-12-19T04:16:29.994Z,588.4
2018-12-19T04:17:32.148Z,588.2
2018-12-19T04:18:34.304Z,588
2018-12-19T04:19:36.190Z,588.6
2018-12-19T04:20:38.613Z,588.7
2018-12-19T04:21:40.492Z,588.5
2018-12-19T04:22:42.916Z,588.2
2018-12-19T04:23:45.342Z,588.2
2018-12-19T04:24:47.758Z,588.4
2018-12-19T04:25:50.184Z,588.4
2018-12-19T04:26:52.333Z,588.9
2018-12-19T04:27:54.763Z,589
2018-12-19T04:28:56.917Z,589
2018-12-19T04:29:59.336Z,589.3
2018-12-19T04:31:01.753Z,589.9
2018-12-19T04:32:03.932Z,590
2018-12-19T04:33:06.377Z,590.3
2018-12-19T04:34:08.808Z,590.4
2018-12-19T04:35:11.237Z,590
2018-12-19T04:36:13.658Z,590.4
2018-12-19T04:37:16.192Z,590.2
2018-12-19T04:38:18.516Z,590.2
2018-12-19T04:39:20.753Z,589.8
2018-12-19T04:40:22.916Z,589.6
2018-12-19T04:41:25.096Z,590.3
2018-12-19T04:42:27.229Z,590.2
2018-12-19T04:43:29.697Z,590.3
2018-12-19T04:44:32.126Z,589.9
2018-12-19T04:45:34.572Z,590.1
2018-12-19T04:46:37.005Z,590.1
2018-12-19T04:47:39.182Z,589.9
2018-12-19T04:48:41.624Z,590.3
2018-12-19T04:49:44.693Z,590.5
2018-12-19T04:50:47.118Z,590.4
2018-12-19T04:51:49.550Z,590.8
2018-12-19T04:52:51.985Z,590.4
2018-12-19T04:53:54.413Z,590.2
2018-12-19T04:54:56.611Z,590.9
2018-12-19T04:55:58.771Z,590.8
2018-12-19T04:57:01.234Z,590.9
2018-12-19T04:58:03.662Z,590.6
2018-12-19T04:59:05.824Z,590.9
2018-12-19T05:00:07.981Z,591.2
2018-12-19T05:01:10.143Z,590.4
2018-12-19T05:02:12.571Z,590.5
2018-12-19T05:03:15.004Z,590.9
2018-12-19T05:04:16.879Z,590.8
2018-12-19T05:05:19.300Z,590.5
2018-12-19T05:06:21.725Z,590.9
2018-12-19T05:07:24.146Z,590.8
2018-12-19T05:08:26.643Z,590.7
2018-12-19T05:09:29.071Z,590.8
2018-12-19T05:10:31.485Z,590.6
2018-12-19T05:11:33.908Z,591.2
2018-12-19T05:12:36.097Z,591.4
2018-12-19T05:13:38.516Z,591
2018-12-19T05:14:40.690Z,590.7
2018-12-19T05:15:43.141Z,590.9
2018-12-19T05:16:45.275Z,591.1
2018-12-19T05:17:47.739Z,590.8
2018-12-19T05:18:49.886Z,591
2018-12-19T05:19:52.063Z,591.2
2018-12-19T05:20:53.943Z,591
2018-12-19T05:21:56.376Z,591.1
2018-12-19T05:22:58.523Z,590.7
2018-12-19T05:24:00.942Z,591
2018-12-19T05:25:03.088Z,590.8
2018-12-19T05:26:05.513Z,590.5
2018-12-19T05:27:07.962Z,590.8
2018-12-19T05:28:10.393Z,590.6
2018-12-19T05:29:12.541Z,590.2
2018-12-19T05:30:14.959Z,590.3
2018-12-19T05:31:17.383Z,590
2018-12-19T05:32:19.819Z,590.1
2018-12-19T05:33:22.229Z,590.2
2018-12-19T05:34:24.659Z,590.1
2018-12-19T05:35:27.095Z,590.1
2018-12-19T05:36:29.525Z,590.8
2018-12-19T05:37:31.683Z,590.6
2018-12-19T05:38:33.561Z,591.1
2018-12-19T05:39:35.735Z,591.1
2018-12-19T05:40:38.151Z,590.9
2018-12-19T05:41:40.581Z,591.1
2018-12-19T05:42:43.001Z,590.8
2018-12-19T05:43:45.152Z,591
2018-12-19T05:44:47.566Z,591
2018-12-19T05:45:49.993Z,591
2018-12-19T05:46:52.426Z,590.5
2018-12-19T05:47:54.580Z,590.7
2018-12-19T05:48:57.000Z,590.7
2018-12-19T05:49:59.162Z,590.8
2018-12-19T05:51:01.622Z,590.3
2018-12-19T05:52:04.059Z,590.4
2018-12-19T05:53:06.500Z,590.3
2018-12-19T05:54:08.948Z,590.1
2018-12-19T05:55:11.373Z,590.5
2018-12-19T05:56:13.812Z,590.5
2018-12-19T05:57:15.966Z,590.6
2018-12-19T05:58:18.392Z,590.2
2018-12-19T05:59:20.821Z,590.3
2018-12-19T06:00:22.699Z,590
2018-12-19T06:01:25.138Z,590.4
2018-12-19T06:02:27.567Z,590.1
2018-12-19T06:03:29.993Z,590.2
2018-12-19T06:04:31.883Z,590.1
2018-12-19T06:05:34.063Z,589.9
2018-12-19T06:06:36.221Z,589.8
2018-12-19T06:07:38.679Z,589.5
2018-12-19T06:08:41.105Z,589.6
2018-12-19T06:09:43.541Z,589.6
2018-12-19T06:10:45.673Z,589.5
2018-12-19T06:11:48.092Z,589.6
2018-12-19T06:12:50.273Z,589.5
2018-12-19T06:13:52.693Z,589.5
2018-12-19T06:14:55.112Z,589.4
2018-12-19T06:15:57.260Z,589.4
2018-12-19T06:16:59.425Z,589
2018-12-19T06:18:01.579Z,589.2
2018-12-19T06:19:04.017Z,589.2
2018-12-19T06:20:06.173Z,589.3
2018-12-19T06:21:08.601Z,589.1
2018-12-19T06:22:11.075Z,589.1
2018-12-19T06:23:13.496Z,589.3
2018-12-19T06:24:15.624Z,589.3
2018-12-19T06:25:18.055Z,589.1
2018-12-19T06:26:20.199Z,589.5
2018-12-19T06:27:22.637Z,589.8
2018-12-19T06:28:25.287Z,589.7
2018-12-19T06:29:27.767Z,589.7
2018-12-19T06:30:29.692Z,589.4
2018-12-19T06:32:01.150Z,589.6
2018-12-19T06:33:03.311Z,590.2
2018-12-19T06:34:05.751Z,590
2018-12-19T06:35:08.182Z,590
2018-12-19T06:36:10.610Z,590.3
2018-12-19T06:37:12.812Z,590
2018-12-19T06:38:14.939Z,589.9
2018-12-19T06:39:17.373Z,590.6
2018-12-19T06:40:19.543Z,590
2018-12-19T06:41:21.689Z,590.2
2018-12-19T06:42:23.832Z,590.3
2018-12-19T06:43:26.251Z,590.6
2018-12-19T06:44:28.421Z,590
2018-12-19T06:45:30.614Z,590.2
2018-12-19T06:46:32.773Z,589.8
2018-12-19T06:47:35.215Z,589.8
2018-12-19T06:48:37.654Z,589.4
2018-12-19T06:49:39.785Z,589.3
2018-12-19T06:50:42.217Z,588.9
2018-12-19T06:51:44.642Z,589.3
2018-12-19T06:52:46.783Z,589
2018-12-19T06:53:48.934Z,589
2018-12-19T06:54:50.829Z,589.2
2018-12-19T06:55:53.251Z,588.8
2018-12-19T06:56:55.122Z,588.8
2018-12-19T06:57:57.015Z,588.6
2018-12-19T06:58:59.445Z,588.2
2018-12-19T07:00:01.331Z,588.3
2018-12-19T07:01:03.273Z,588.7
2018-12-19T07:02:05.694Z,588.7
2018-12-19T07:03:07.849Z,588.4
2018-12-19T07:04:10.010Z,588.5
2018-12-19T07:05:12.442Z,588.2
2018-12-19T07:06:14.313Z,588.4
2018-12-19T07:07:16.492Z,588.1
2018-12-19T07:08:18.921Z,588.6
2018-12-19T07:09:21.083Z,588.3
2018-12-19T07:10:23.509Z,588.6
2018-12-19T07:11:25.939Z,588.1
2018-12-19T07:12:28.071Z,588
2018-12-19T07:13:30.513Z,587.9
2018-12-19T07:14:32.677Z,588
2018-12-19T07:15:35.110Z,588.2
2018-12-19T07:17:43.477Z,588.1
2018-12-19T07:18:45.369Z,588.2
2018-12-19T07:19:47.229Z,588.1
2018-12-19T07:20:49.690Z,587.7
2018-12-19T07:21:52.103Z,587.7
2018-12-19T07:22:53.984Z,588
2018-12-19T07:23:56.127Z,587.9
2018-12-19T07:24:58.263Z,587.9
2018-12-19T07:26:00.426Z,587.7
2018-12-19T07:27:02.905Z,588
2018-12-19T07:28:04.767Z,587.3
2018-12-19T07:29:06.925Z,587.5
2018-12-19T07:30:08.785Z,587
2018-12-19T07:31:11.210Z,586.8
2018-12-19T07:32:13.110Z,586.8
2018-12-19T07:33:15.259Z,587
2018-12-19T07:34:17.695Z,586.9
2018-12-19T07:35:19.854Z,586.6
2018-12-19T07:36:21.981Z,586.5
2018-12-19T07:37:23.871Z,586.6
2018-12-19T07:38:26.057Z,586.4
2018-12-19T07:39:27.925Z,586.2
2018-12-19T07:40:30.069Z,586.2
2018-12-19T07:41:32.503Z,585.6
2018-12-19T07:42:34.673Z,585.8
2018-12-19T07:43:37.119Z,586.2
2018-12-19T07:44:39.005Z,585.9
2018-12-19T07:45:41.160Z,586
2018-12-19T07:46:43.589Z,585.6
2018-12-19T07:47:45.482Z,585.9
2018-12-19T07:48:47.360Z,585.7
2018-12-19T07:49:49.801Z,585.7
2018-12-19T07:50:52.241Z,585.8
2018-12-19T07:51:54.697Z,586
2018-12-19T07:52:57.144Z,586.1
2018-12-19T07:53:59.331Z,585.8
2018-12-19T07:55:01.757Z,586.5
2018-12-19T07:56:03.641Z,586.4
2018-12-19T07:57:06.076Z,585.9
2018-12-19T07:58:08.217Z,585.8
2018-12-19T07:59:10.649Z,585.5
2018-12-19T08:00:13.084Z,585.2
2018-12-19T08:01:14.941Z,585.3
2018-12-19T08:02:17.384Z,585.4
2018-12-19T08:03:19.804Z,585.2
2018-12-19T08:04:22.236Z,585.1
2018-12-19T08:06:29.098Z,585
2018-12-19T08:07:31.517Z,585.1
2018-12-19T08:08:33.686Z,584.9
2018-12-19T08:09:36.113Z,584.9
2018-12-19T08:10:38.561Z,584.7
2018-12-19T08:11:40.426Z,584.5
2018-12-19T08:12:42.292Z,584.5
2018-12-19T08:13:44.774Z,584.7
2018-12-19T08:14:47.203Z,584.4
2018-12-19T08:15:49.663Z,584.7
2018-12-19T08:16:52.097Z,584.9
2018-12-19T08:17:54.533Z,584.7
2018-12-19T08:18:56.946Z,584.7
2018-12-19T08:19:59.132Z,584.7
2018-12-19T08:21:01.565Z,584.8
2018-12-19T08:22:03.979Z,585.2
2018-12-19T08:23:06.405Z,585.1
2018-12-19T08:24:08.830Z,585.4
2018-12-19T08:25:10.735Z,584.9
2018-12-19T08:26:13.154Z,585.3
2018-12-19T08:27:15.582Z,584.7
2018-12-19T08:28:18.002Z,584.9
2018-12-19T08:29:20.139Z,584.9
2018-12-19T08:30:22.570Z,584.7
2018-12-19T08:31:24.725Z,584.9
2018-12-19T08:32:26.897Z,584.5
2018-12-19T08:33:29.045Z,584.3
2018-12-19T08:34:31.190Z,584.3
2018-12-19T08:35:33.076Z,584.2
2018-12-19T08:36:35.230Z,584
2018-12-19T08:37:37.658Z,583.9
2018-12-19T08:38:39.812Z,584.2
2018-12-19T08:39:41.972Z,584.2
2018-12-19T08:40:44.140Z,584.3
2018-12-19T08:41:46.028Z,584.2
2018-12-19T08:42:48.463Z,584.2
2018-12-19T08:43:50.628Z,584.3
2018-12-19T08:44:53.051Z,584.5
2018-12-19T08:45:54.952Z,584.3
2018-12-19T08:46:57.115Z,583.4
2018-12-19T08:47:59.542Z,584
2018-12-19T08:49:01.972Z,583.8
2018-12-19T08:50:05.549Z,584.1
2018-12-19T08:51:07.425Z,583.9
2018-12-19T08:52:09.866Z,583.9
2018-12-19T08:53:12.317Z,583.9
2018-12-19T08:54:14.732Z,584.1
2018-12-19T08:55:16.939Z,584
2018-12-19T08:56:19.082Z,584.2
2018-12-19T08:57:21.560Z,583.7
2018-12-19T08:58:23.993Z,584.6
2018-12-19T08:59:26.148Z,584.5
2018-12-19T09:00:28.580Z,584.4
2018-12-19T09:01:30.732Z,584.5
2018-12-19T09:02:32.904Z,584.7
2018-12-19T09:03:34.797Z,584.7
2018-12-19T09:04:37.234Z,584.7
2018-12-19T09:05:39.667Z,584.8
2018-12-19T09:06:42.218Z,584.6
2018-12-19T09:07:44.738Z,584.3
2018-12-19T09:08:47.173Z,584.1
2018-12-19T09:09:49.628Z,584.2
2018-12-19T09:10:51.492Z,584.3
2018-12-19T09:11:53.923Z,584.2
2018-12-19T09:12:56.350Z,584.3
2018-12-19T09:13:58.777Z,584.7
2018-12-19T09:15:02.479Z,584.9
2018-12-19T09:16:04.900Z,584.4
2018-12-19T09:17:07.054Z,584.6
2018-12-19T09:18:09.196Z,584.6
2018-12-19T09:19:11.351Z,584.6
2018-12-19T09:20:13.517Z,584
2018-12-19T09:21:15.945Z,584.3
2018-12-19T09:22:18.085Z,584
2018-12-19T09:23:20.506Z,584
2018-12-19T09:24:22.651Z,584.3
2018-12-19T09:25:24.808Z,584.2
2018-12-19T09:26:26.981Z,584.5
2018-12-19T09:27:29.144Z,584.6
2018-12-19T09:28:31.572Z,584.7
2018-12-19T09:29:33.720Z,584.7
2018-12-19T09:30:35.871Z,584.8
2018-12-19T09:31:38.290Z,584.4
2018-12-19T09:32:40.719Z,584.5
2018-12-19T09:33:42.891Z,584.9
2018-12-19T09:34:45.320Z,584.4
2018-12-19T09:35:47.738Z,584.3
2018-12-19T09:36:49.887Z,585.1
2018-12-19T09:37:51.774Z,584.7
2018-12-19T09:38:53.676Z,584.7
2018-12-19T09:39:56.099Z,584.3
2018-12-19T09:40:57.981Z,584.6
2018-12-19T09:42:00.147Z,584.1
2018-12-19T09:43:02.323Z,584.1
2018-12-19T09:44:04.460Z,583.8
2018-12-19T09:45:06.718Z,583.4
2018-12-19T09:46:09.148Z,583.5
2018-12-19T09:47:11.291Z,583.3
2018-12-19T09:48:13.713Z,583.2
2018-12-19T09:49:16.121Z,583.1
2018-12-19T09:50:18.285Z,583.4
2018-12-19T09:51:20.692Z,583.4
2018-12-19T09:52:23.114Z,583.4
2018-12-19T09:53:25.539Z,583.5
2018-12-19T09:54:27.677Z,584
2018-12-19T09:55:30.102Z,584.1
2018-12-19T09:56:32.245Z,584.1
2018-12-19T09:57:34.109Z,584.4
2018-12-19T09:58:36.261Z,584.9
2018-12-19T09:59:38.698Z,584.6
2018-12-19T10:00:40.863Z,585
2018-12-19T10:01:42.711Z,584.9
2018-12-19T10:02:44.878Z,585.3
2018-12-19T10:03:47.309Z,585.3
2018-12-19T10:04:49.568Z,584.6
2018-12-19T10:05:51.721Z,585.1
2018-12-19T10:06:53.878Z,585.1
2018-12-19T10:08:25.335Z,585
2018-12-19T10:09:27.771Z,584.6
2018-12-19T10:10:30.206Z,585.2
2018-12-19T10:11:32.629Z,584.9
2018-12-19T10:12:35.088Z,584.7
2018-12-19T10:13:36.707Z,585.3
2018-12-19T10:14:39.139Z,585.6
2018-12-19T10:15:41.297Z,585.9
2018-12-19T10:16:43.718Z,586.1
2018-12-19T10:17:46.145Z,586.6
2018-12-19T10:18:48.574Z,586.4
2018-12-19T10:19:51.011Z,586.6
2018-12-19T10:20:53.441Z,586.8
2018-12-19T10:21:55.593Z,587.1
2018-12-19T10:22:58.018Z,587.6
2018-12-19T10:24:00.226Z,587.8
2018-12-19T10:25:02.378Z,588.1
2018-12-19T10:26:04.813Z,588.2
2018-12-19T10:27:07.259Z,588.4
2018-12-19T10:28:09.422Z,588.3
2018-12-19T10:29:11.567Z,588.9
2018-12-19T10:30:14.037Z,588.5
2018-12-19T10:31:16.455Z,588.3
2018-12-19T10:32:18.588Z,588.9
2018-12-19T10:33:21.016Z,588.5
2018-12-19T10:34:23.172Z,588.8
2018-12-19T10:35:25.321Z,588.1
2018-12-19T10:36:27.229Z,589
2018-12-19T10:37:29.732Z,589.4
2018-12-19T10:38:31.921Z,589.3
2018-12-19T10:39:33.788Z,589.4
2018-12-19T10:40:36.207Z,588.9
2018-12-19T10:41:38.632Z,589
2018-12-19T10:42:41.053Z,588.4
2018-12-19T10:43:43.752Z,588.4
2018-12-19T10:44:45.902Z,588.4
2018-12-19T10:45:48.321Z,588.7
2018-12-19T10:46:50.484Z,588.7
2018-12-19T10:47:52.824Z,588.7
2018-12-19T10:48:54.981Z,589.1
2018-12-19T10:49:57.127Z,589.6
2018-12-19T10:50:59.593Z,589.4
2018-12-19T10:52:01.734Z,589.3
2018-12-19T10:53:03.898Z,588.7
2018-12-19T10:54:06.339Z,588.9
2018-12-19T10:55:08.514Z,589.4
2018-12-19T10:56:10.948Z,589.7
2018-12-19T10:57:13.118Z,589.9
2018-12-19T10:58:15.599Z,590
2018-12-19T10:59:18.024Z,589.8
2018-12-19T11:00:20.211Z,589.7
2018-12-19T11:01:22.636Z,589.8
2018-12-19T11:02:24.500Z,590.3
2018-12-19T11:03:26.634Z,590.5
2018-12-19T11:04:29.058Z,590.5
2018-12-19T11:05:31.481Z,590.5
2018-12-19T11:06:33.905Z,590.6
2018-12-19T11:07:36.328Z,590.8
2018-12-19T11:08:38.758Z,590.7
2018-12-19T11:09:41.185Z,590.6
2018-12-19T11:10:43.327Z,591
2018-12-19T11:11:45.985Z,590.9
2018-12-19T11:12:48.136Z,591.2
2018-12-19T11:13:50.575Z,591.4
2018-12-19T11:14:53.001Z,591.5
2018-12-19T11:15:55.440Z,591.6
2018-12-19T11:16:57.876Z,591.4
2018-12-19T11:18:00.312Z,591.4
2018-12-19T11:19:02.750Z,591.3
2018-12-19T11:20:05.176Z,591.8
2018-12-19T11:21:07.613Z,591.5
2018-12-19T11:22:09.765Z,591.6
2018-12-19T11:23:11.653Z,591.8
2018-12-19T11:24:13.818Z,591.7
2018-12-19T11:25:15.691Z,592
2018-12-19T11:26:17.851Z,592.6
2018-12-19T11:27:20.264Z,592.2
2018-12-19T11:28:22.399Z,592.7
2018-12-19T11:29:24.404Z,592.8
2018-12-19T11:30:26.560Z,593
2018-12-19T11:31:28.158Z,593.6
2018-12-19T11:32:30.355Z,593.3
2018-12-19T11:33:32.233Z,593.6
2018-12-19T11:34:33.826Z,593.5
2018-12-19T11:35:36.263Z,593.2
2018-12-19T11:36:38.443Z,593.5
2018-12-19T11:37:40.874Z,593.3
2018-12-19T11:38:43.025Z,593.4
2018-12-19T11:39:45.450Z,593.7
2018-12-19T11:40:47.938Z,593.7
2018-12-19T11:41:50.420Z,593.9
2018-12-19T11:42:52.596Z,594.4
2018-12-19T11:43:54.757Z,594.6
2018-12-19T11:44:58.391Z,594.5
2018-12-19T11:46:00.522Z,594.6
2018-12-19T11:47:02.131Z,594.2
2018-12-19T11:48:04.553Z,594
2018-12-19T11:49:06.972Z,594.3
2018-12-19T11:50:09.124Z,595.1
2018-12-19T11:51:11.550Z,595.2
2018-12-19T11:52:13.973Z,595.7
2018-12-19T11:53:16.139Z,596
2018-12-19T11:54:18.301Z,595.6
2018-12-19T11:55:20.466Z,596
2018-12-19T11:56:22.888Z,596.3
2018-12-19T11:57:25.373Z,596.3
2018-12-19T11:58:27.600Z,596.3
2018-12-19T11:59:29.192Z,596.4
2018-12-19T12:00:31.626Z,596.1
2018-12-19T12:01:34.051Z,596.6
2018-12-19T12:02:36.477Z,596.4
2018-12-19T12:03:38.897Z,596.6
2018-12-19T12:04:41.043Z,597
2018-12-19T12:05:43.546Z,596.4
2018-12-19T12:06:45.976Z,597
2018-12-19T12:07:48.410Z,596.6
2018-12-19T12:08:50.556Z,597.1
2018-12-19T12:09:52.982Z,597.4
2018-12-19T12:10:55.410Z,597.3
2018-12-19T12:11:57.560Z,597.2
2018-12-19T12:12:59.982Z,597.3
2018-12-19T12:14:02.418Z,597.2
2018-12-19T12:15:04.566Z,597.4
2018-12-19T12:16:06.470Z,597.6
2018-12-19T12:17:10.239Z,598
2018-12-19T12:18:12.104Z,597.5
2018-12-19T12:19:14.557Z,597.4
2018-12-19T12:20:16.983Z,597.5
2018-12-19T12:21:19.130Z,596.9
2018-12-19T12:22:21.551Z,597.3
2018-12-19T12:23:23.987Z,597.8
2018-12-19T12:24:26.423Z,597.5
2018-12-19T12:25:28.850Z,597.6
2018-12-19T12:26:31.285Z,597.4
2018-12-19T12:27:33.711Z,597.6
2018-12-19T12:28:35.856Z,597.2
2018-12-19T12:29:38.030Z,597.6
2018-12-19T12:30:40.473Z,597.8
2018-12-19T12:31:42.913Z,597.9
2018-12-19T12:32:45.361Z,597.8
2018-12-19T12:33:47.771Z,597.6
2018-12-19T12:34:50.211Z,597.6
2018-12-19T12:35:52.645Z,597.6
2018-12-19T12:36:55.073Z,597
2018-12-19T12:37:57.496Z,597.1
2018-12-19T12:38:59.951Z,597.2
2018-12-19T12:40:02.103Z,597.1
2018-12-19T12:41:04.520Z,597.4
2018-12-19T12:42:06.968Z,597.8
2018-12-19T12:43:09.401Z,597.7
2018-12-19T12:44:11.833Z,597.8
2018-12-19T12:45:14.257Z,597.7
2018-12-19T12:46:16.679Z,597.6
2018-12-19T12:47:19.103Z,598.1
2018-12-19T12:48:21.257Z,597.9
2018-12-19T12:49:23.693Z,598
2018-12-19T12:50:26.133Z,598
2018-12-19T12:51:28.571Z,597.7
2018-12-19T12:52:30.984Z,597.9
2018-12-19T12:53:33.133Z,598.2
2018-12-19T12:54:35.299Z,598.1
2018-12-19T12:55:37.454Z,598
2018-12-19T12:56:39.619Z,598.7
2018-12-19T12:57:42.044Z,598.5
2018-12-19T12:58:44.469Z,599.1
2018-12-19T12:59:46.909Z,599.1
2018-12-19T13:00:48.769Z,598.9
2018-12-19T13:01:51.196Z,599.1
2018-12-19T13:02:53.633Z,599.7
2018-12-19T13:03:55.542Z,599.2
2018-12-19T13:04:57.690Z,599.7
2018-12-19T13:05:59.834Z,599.3
2018-12-19T13:07:01.453Z,599.9
2018-12-19T13:08:03.600Z,599.4
2018-12-19T13:09:06.037Z,600
2018-12-19T13:10:08.472Z,599.8
2018-12-19T13:11:10.903Z,600
2018-12-19T13:12:13.062Z,600.5
2018-12-19T13:13:14.655Z,600.4
2018-12-19T13:14:17.103Z,600.5
2018-12-19T13:15:19.531Z,600.8
2018-12-19T13:16:21.388Z,600.8
2018-12-19T13:17:23.807Z,600.7
2018-12-19T13:18:25.700Z,600.6
2018-12-19T13:19:28.140Z,600.4
2018-12-19T13:20:30.581Z,600.6
2018-12-19T13:21:33.020Z,600.4
2018-12-19T13:22:35.452Z,600.1
2018-12-19T13:23:37.324Z,600.3
2018-12-19T13:24:39.505Z,600.8
2018-12-19T13:25:41.954Z,600.5
2018-12-19T13:26:44.113Z,600.6
2018-12-19T13:27:46.543Z,601.1
2018-12-19T13:28:48.983Z,601.2
2018-12-19T13:29:50.882Z,601.7
2018-12-19T13:30:53.031Z,601.7